sensor_id;sensor_type;location;lat;lon;timestamp;temperature;humidity
3866;DHT22;1948;53.250;10.412;2024-02-04T00:00:27;7.80;99.90
3866;DHT22;1948;53.250;10.412;2024-02-04T00:02:54;7.80;99.90
3866;DHT22;1948;53.250;10.412;2024-02-04T00:05:21;7.80;99.90
3866;DHT22;1948;53.250;10.412;2024-02-04T00:07:51;7.80;99.90
3866;DHT22;1948;53.250;10.412;2024-02-04T00:10:18;7.70;99.90
3866;DHT22;1948;53.250;10.412;2024-02-04T00:12:47;7.70;99.90
3866;DHT22;1948;53.250;10.412;2024-02-04T00:15:17;7.70;99.90
3866;DHT22;1948;53.250;10.412;2024-02-04T00:17:43;7.60;99.90
3866;DHT22;1948;53.250;10.412;2024-02-04T00:20:13;7.60;99.90
3866;DHT22;1948;53.250;10.412;2024-02-04T00:22:42;7.60;99.90
3866;DHT22;1948;53.250;10.412;2024-02-04T00:25:11;7.60;99.90
3866;DHT22;1948;53.250;10.412;2024-02-04T00:27:39;7.50;99.90
3866;DHT22;1948;53.250;10.412;2024-02-04T00:30:06;7.50;99.90
3866;DHT22;1948;53.250;10.412;2024-02-04T00:32:37;7.50;99.90
3866;DHT22;1948;53.250;10.412;2024-02-04T00:35:04;7.50;99.90
3866;DHT22;1948;53.250;10.412;2024-02-04T00:37:36;7.50;99.90
3866;DHT22;1948;53.250;10.412;2024-02-04T00:40:03;7.50;99.90
3866;DHT22;1948;53.250;10.412;2024-02-04T00:42:33;7.50;99.90
3866;DHT22;1948;53.250;10.412;2024-02-04T00:45:00;7.50;99.90
3866;DHT22;1948;53.250;10.412;2024-02-04T00:47:27;7.50;99.90
3866;DHT22;1948;53.250;10.412;2024-02-04T00:49:54;7.50;99.90
3866;DHT22;1948;53.250;10.412;2024-02-04T00:52:23;7.50;99.90
3866;DHT22;1948;53.250;10.412;2024-02-04T00:54:50;7.40;99.90
3866;DHT22;1948;53.250;10.412;2024-02-04T00:57:19;7.40;99.90
3866;DHT22;1948;53.250;10.412;2024-02-04T00:59:48;7.40;99.90
3866;DHT22;1948;53.250;10.412;2024-02-04T01:02:16;7.40;99.90
3866;DHT22;1948;53.250;10.412;2024-02-04T01:04:48;7.40;99.90
3866;DHT22;1948;53.250;10.412;2024-02-04T01:07:19;7.30;99.90
3866;DHT22;1948;53.250;10.412;2024-02-04T01:09:49;7.30;99.90
3866;DHT22;1948;53.250;10.412;2024-02-04T01:12:16;7.30;99.90
3866;DHT22;1948;53.250;10.412;2024-02-04T01:14:43;7.30;99.90
3866;DHT22;1948;53.250;10.412;2024-02-04T01:17:10;7.30;99.90
3866;DHT22;1948;53.250;10.412;2024-02-04T01:19:37;7.30;99.90
3866;DHT22;1948;53.250;10.412;2024-02-04T01:22:07;7.30;99.90
3866;DHT22;1948;53.250;10.412;2024-02-04T01:24:34;7.30;99.90
3866;DHT22;1948;53.250;10.412;2024-02-04T01:27:01;7.30;99.90
3866;DHT22;1948;53.250;10.412;2024-02-04T01:29:30;7.30;99.90
3866;DHT22;1948;53.250;10.412;2024-02-04T01:32:02;7.30;99.90
3866;DHT22;1948;53.250;10.412;2024-02-04T01:34:32;7.20;99.90
3866;DHT22;1948;53.250;10.412;2024-02-04T01:36:59;7.20;99.90
3866;DHT22;1948;53.250;10.412;2024-02-04T01:39:28;7.30;99.90
3866;DHT22;1948;53.250;10.412;2024-02-04T01:41:57;7.40;99.90
3866;DHT22;1948;53.250;10.412;2024-02-04T01:44:27;7.40;99.90
3866;DHT22;1948;53.250;10.412;2024-02-04T01:46:54;7.50;99.90
3866;DHT22;1948;53.250;10.412;2024-02-04T01:49:21;7.50;99.90
3866;DHT22;1948;53.250;10.412;2024-02-04T01:51:51;7.60;99.90
3866;DHT22;1948;53.250;10.412;2024-02-04T01:54:19;7.60;99.90
3866;DHT22;1948;53.250;10.412;2024-02-04T01:56:53;7.60;99.90
3866;DHT22;1948;53.250;10.412;2024-02-04T01:59:22;7.60;99.90
3866;DHT22;1948;53.250;10.412;2024-02-04T02:01:55;7.70;99.90
3866;DHT22;1948;53.250;10.412;2024-02-04T02:04:22;7.70;99.90
3866;DHT22;1948;53.250;10.412;2024-02-04T02:06:54;7.80;99.90
3866;DHT22;1948;53.250;10.412;2024-02-04T02:09:26;7.80;99.90
3866;DHT22;1948;53.250;10.412;2024-02-04T02:12:07;7.80;99.90
3866;DHT22;1948;53.250;10.412;2024-02-04T02:14:41;7.80;99.90
3866;DHT22;1948;53.250;10.412;2024-02-04T02:17:17;7.80;99.90
3866;DHT22;1948;53.250;10.412;2024-02-04T02:25:16;7.80;99.90
3866;DHT22;1948;53.250;10.412;2024-02-04T02:27:51;7.90;99.90
3866;DHT22;1948;53.250;10.412;2024-02-04T02:30:26;7.90;99.90
3866;DHT22;1948;53.250;10.412;2024-02-04T02:32:53;7.90;99.90
3866;DHT22;1948;53.250;10.412;2024-02-04T02:35:23;7.90;99.90
3866;DHT22;1948;53.250;10.412;2024-02-04T02:38:02;7.90;99.90
3866;DHT22;1948;53.250;10.412;2024-02-04T02:40:47;8.00;99.90
3866;DHT22;1948;53.250;10.412;2024-02-04T02:43:18;8.00;99.90
3866;DHT22;1948;53.250;10.412;2024-02-04T02:45:50;8.00;99.90
3866;DHT22;1948;53.250;10.412;2024-02-04T02:48:20;8.00;99.90
3866;DHT22;1948;53.250;10.412;2024-02-04T02:50:48;8.00;99.90
3866;DHT22;1948;53.250;10.412;2024-02-04T02:53:14;8.10;99.90
3866;DHT22;1948;53.250;10.412;2024-02-04T02:55:42;8.10;99.90
3866;DHT22;1948;53.250;10.412;2024-02-04T02:58:14;8.10;99.90
3866;DHT22;1948;53.250;10.412;2024-02-04T03:00:41;8.10;99.90
3866;DHT22;1948;53.250;10.412;2024-02-04T03:03:08;8.10;99.90
3866;DHT22;1948;53.250;10.412;2024-02-04T03:05:37;8.00;99.90
3866;DHT22;1948;53.250;10.412;2024-02-04T03:08:05;8.10;99.90
3866;DHT22;1948;53.250;10.412;2024-02-04T03:10:35;8.00;99.90
3866;DHT22;1948;53.250;10.412;2024-02-04T03:13:02;8.00;99.90
3866;DHT22;1948;53.250;10.412;2024-02-04T03:15:31;8.00;99.90
3866;DHT22;1948;53.250;10.412;2024-02-04T03:18:00;7.90;99.90
3866;DHT22;1948;53.250;10.412;2024-02-04T03:20:30;7.90;99.90
3866;DHT22;1948;53.250;10.412;2024-02-04T03:22:57;7.80;99.90
3866;DHT22;1948;53.250;10.412;2024-02-04T03:25:24;7.80;99.90
3866;DHT22;1948;53.250;10.412;2024-02-04T03:27:55;7.80;99.90
3866;DHT22;1948;53.250;10.412;2024-02-04T03:30:22;7.80;99.90
3866;DHT22;1948;53.250;10.412;2024-02-04T03:32:49;7.80;99.90
3866;DHT22;1948;53.250;10.412;2024-02-04T03:35:18;7.70;99.90
3866;DHT22;1948;53.250;10.412;2024-02-04T03:37:45;7.70;99.90
3866;DHT22;1948;53.250;10.412;2024-02-04T03:40:15;7.70;99.90
3866;DHT22;1948;53.250;10.412;2024-02-04T03:42:42;7.60;99.90
3866;DHT22;1948;53.250;10.412;2024-02-04T03:45:09;7.60;99.90
3866;DHT22;1948;53.250;10.412;2024-02-04T03:47:40;7.60;99.90
3866;DHT22;1948;53.250;10.412;2024-02-04T03:50:08;7.60;99.90
3866;DHT22;1948;53.250;10.412;2024-02-04T03:52:37;7.50;99.90
3866;DHT22;1948;53.250;10.412;2024-02-04T03:55:09;7.50;99.90
3866;DHT22;1948;53.250;10.412;2024-02-04T03:57:36;7.50;99.90
3866;DHT22;1948;53.250;10.412;2024-02-04T04:00:08;7.40;99.90
3866;DHT22;1948;53.250;10.412;2024-02-04T04:02:35;7.40;99.90
3866;DHT22;1948;53.250;10.412;2024-02-04T04:05:06;7.40;99.90
3866;DHT22;1948;53.250;10.412;2024-02-04T04:07:38;7.40;99.90
3866;DHT22;1948;53.250;10.412;2024-02-04T04:10:08;7.40;99.90
3866;DHT22;1948;53.250;10.412;2024-02-04T04:12:37;7.40;99.90
3866;DHT22;1948;53.250;10.412;2024-02-04T04:15:07;7.30;99.90
3866;DHT22;1948;53.250;10.412;2024-02-04T04:17:36;7.30;99.90
3866;DHT22;1948;53.250;10.412;2024-02-04T04:20:06;7.30;99.90
3866;DHT22;1948;53.250;10.412;2024-02-04T04:22:38;7.30;99.90
3866;DHT22;1948;53.250;10.412;2024-02-04T04:25:09;7.30;99.90
3866;DHT22;1948;53.250;10.412;2024-02-04T04:27:40;7.30;99.90
3866;DHT22;1948;53.250;10.412;2024-02-04T04:30:07;7.20;99.90
3866;DHT22;1948;53.250;10.412;2024-02-04T04:32:42;7.20;99.90
3866;DHT22;1948;53.250;10.412;2024-02-04T04:35:11;7.20;99.90
3866;DHT22;1948;53.250;10.412;2024-02-04T04:37:41;7.20;99.90
3866;DHT22;1948;53.250;10.412;2024-02-04T04:40:10;7.20;99.90
3866;DHT22;1948;53.250;10.412;2024-02-04T04:42:38;7.20;99.90
3866;DHT22;1948;53.250;10.412;2024-02-04T04:45:05;7.10;99.90
3866;DHT22;1948;53.250;10.412;2024-02-04T04:47:34;7.10;99.90
3866;DHT22;1948;53.250;10.412;2024-02-04T04:50:10;7.10;99.90
3866;DHT22;1948;53.250;10.412;2024-02-04T04:52:37;7.10;99.90
3866;DHT22;1948;53.250;10.412;2024-02-04T04:55:04;7.10;99.90
3866;DHT22;1948;53.250;10.412;2024-02-04T04:57:34;7.10;99.90
3866;DHT22;1948;53.250;10.412;2024-02-04T05:00:04;7.10;99.90
3866;DHT22;1948;53.250;10.412;2024-02-04T05:02:33;7.00;99.90
3866;DHT22;1948;53.250;10.412;2024-02-04T05:05:00;7.10;99.90
3866;DHT22;1948;53.250;10.412;2024-02-04T05:07:30;7.10;99.90
3866;DHT22;1948;53.250;10.412;2024-02-04T05:09:57;7.00;99.90
3866;DHT22;1948;53.250;10.412;2024-02-04T05:12:24;7.00;99.90
3866;DHT22;1948;53.250;10.412;2024-02-04T05:14:51;7.00;99.90
3866;DHT22;1948;53.250;10.412;2024-02-04T05:17:20;7.10;99.90
3866;DHT22;1948;53.250;10.412;2024-02-04T05:19:49;7.10;99.90
3866;DHT22;1948;53.250;10.412;2024-02-04T05:22:19;7.10;99.90
3866;DHT22;1948;53.250;10.412;2024-02-04T05:24:48;7.10;99.90
3866;DHT22;1948;53.250;10.412;2024-02-04T05:27:17;7.10;99.90
3866;DHT22;1948;53.250;10.412;2024-02-04T05:29:44;7.10;99.90
3866;DHT22;1948;53.250;10.412;2024-02-04T05:32:14;7.10;99.90
3866;DHT22;1948;53.250;10.412;2024-02-04T05:34:44;7.10;99.90
3866;DHT22;1948;53.250;10.412;2024-02-04T05:37:14;7.10;99.90
3866;DHT22;1948;53.250;10.412;2024-02-04T05:39:41;7.20;99.90
3866;DHT22;1948;53.250;10.412;2024-02-04T05:42:08;7.10;99.90
3866;DHT22;1948;53.250;10.412;2024-02-04T05:44:42;7.20;99.90
3866;DHT22;1948;53.250;10.412;2024-02-04T05:47:09;7.20;99.90
3866;DHT22;1948;53.250;10.412;2024-02-04T05:49:35;7.20;99.90
3866;DHT22;1948;53.250;10.412;2024-02-04T05:52:03;7.20;99.90
3866;DHT22;1948;53.250;10.412;2024-02-04T05:54:30;7.20;99.90
3866;DHT22;1948;53.250;10.412;2024-02-04T05:56:57;7.20;99.90
3866;DHT22;1948;53.250;10.412;2024-02-04T05:59:24;7.10;99.90
3866;DHT22;1948;53.250;10.412;2024-02-04T06:01:53;7.20;99.90
3866;DHT22;1948;53.250;10.412;2024-02-04T06:04:20;7.20;99.90
3866;DHT22;1948;53.250;10.412;2024-02-04T06:06:47;7.20;99.90
3866;DHT22;1948;53.250;10.412;2024-02-04T06:09:19;7.20;99.90
3866;DHT22;1948;53.250;10.412;2024-02-04T06:11:46;7.20;99.90
3866;DHT22;1948;53.250;10.412;2024-02-04T06:14:16;7.20;99.90
3866;DHT22;1948;53.250;10.412;2024-02-04T06:16:43;7.10;99.90
3866;DHT22;1948;53.250;10.412;2024-02-04T06:19:12;7.10;99.90
3866;DHT22;1948;53.250;10.412;2024-02-04T06:21:41;7.20;99.90
3866;DHT22;1948;53.250;10.412;2024-02-04T06:24:10;7.20;99.90
3866;DHT22;1948;53.250;10.412;2024-02-04T06:26:38;7.20;99.90
3866;DHT22;1948;53.250;10.412;2024-02-04T06:29:06;7.20;99.90
3866;DHT22;1948;53.250;10.412;2024-02-04T06:31:33;7.20;99.90
3866;DHT22;1948;53.250;10.412;2024-02-04T06:34:02;7.20;99.90
3866;DHT22;1948;53.250;10.412;2024-02-04T06:36:29;7.30;99.90
3866;DHT22;1948;53.250;10.412;2024-02-04T06:38:58;7.30;99.90
3866;DHT22;1948;53.250;10.412;2024-02-04T06:41:25;7.40;99.90
3866;DHT22;1948;53.250;10.412;2024-02-04T06:43:54;7.40;99.90
3866;DHT22;1948;53.250;10.412;2024-02-04T06:46:27;7.40;99.90
3866;DHT22;1948;53.250;10.412;2024-02-04T06:48:57;7.30;99.90
3866;DHT22;1948;53.250;10.412;2024-02-04T06:51:24;7.30;99.90
3866;DHT22;1948;53.250;10.412;2024-02-04T06:53:56;7.30;99.90
3866;DHT22;1948;53.250;10.412;2024-02-04T06:56:23;7.30;99.90
3866;DHT22;1948;53.250;10.412;2024-02-04T06:58:54;7.30;99.90
3866;DHT22;1948;53.250;10.412;2024-02-04T07:01:21;7.30;99.90
3866;DHT22;1948;53.250;10.412;2024-02-04T07:03:48;7.30;99.90
3866;DHT22;1948;53.250;10.412;2024-02-04T07:06:17;7.30;99.90
3866;DHT22;1948;53.250;10.412;2024-02-04T07:08:44;7.30;99.90
3866;DHT22;1948;53.250;10.412;2024-02-04T07:11:10;7.30;99.90
3866;DHT22;1948;53.250;10.412;2024-02-04T07:13:38;7.30;99.90
3866;DHT22;1948;53.250;10.412;2024-02-04T07:16:07;7.20;99.90
3866;DHT22;1948;53.250;10.412;2024-02-04T07:18:36;7.30;99.90
3866;DHT22;1948;53.250;10.412;2024-02-04T07:21:06;7.30;99.90
3866;DHT22;1948;53.250;10.412;2024-02-04T07:23:35;7.20;99.90
3866;DHT22;1948;53.250;10.412;2024-02-04T07:26:04;7.30;99.90
3866;DHT22;1948;53.250;10.412;2024-02-04T07:28:36;7.30;99.90
3866;DHT22;1948;53.250;10.412;2024-02-04T07:31:03;7.30;99.90
3866;DHT22;1948;53.250;10.412;2024-02-04T07:33:31;7.30;99.90
3866;DHT22;1948;53.250;10.412;2024-02-04T07:35:59;7.40;99.90
3866;DHT22;1948;53.250;10.412;2024-02-04T07:38:26;7.40;99.90
3866;DHT22;1948;53.250;10.412;2024-02-04T07:40:55;7.40;99.90
3866;DHT22;1948;53.250;10.412;2024-02-04T07:43:25;7.50;99.90
3866;DHT22;1948;53.250;10.412;2024-02-04T07:45:54;7.40;99.90
3866;DHT22;1948;53.250;10.412;2024-02-04T07:48:22;7.40;99.90
3866;DHT22;1948;53.250;10.412;2024-02-04T07:50:53;7.40;99.90
3866;DHT22;1948;53.250;10.412;2024-02-04T07:53:20;7.40;99.90
3866;DHT22;1948;53.250;10.412;2024-02-04T07:55:52;7.40;99.90
3866;DHT22;1948;53.250;10.412;2024-02-04T07:58:19;7.50;99.90
3866;DHT22;1948;53.250;10.412;2024-02-04T08:00:45;7.50;99.90
3866;DHT22;1948;53.250;10.412;2024-02-04T08:03:12;7.50;99.90
3866;DHT22;1948;53.250;10.412;2024-02-04T08:05:40;7.50;99.90
3866;DHT22;1948;53.250;10.412;2024-02-04T08:08:07;7.50;99.90
3866;DHT22;1948;53.250;10.412;2024-02-04T08:10:36;7.60;99.90
3866;DHT22;1948;53.250;10.412;2024-02-04T08:13:03;7.60;99.90
3866;DHT22;1948;53.250;10.412;2024-02-04T08:15:30;7.60;99.90
3866;DHT22;1948;53.250;10.412;2024-02-04T08:17:57;7.60;99.90
3866;DHT22;1948;53.250;10.412;2024-02-04T08:20:28;7.70;99.90
3866;DHT22;1948;53.250;10.412;2024-02-04T08:22:58;7.80;99.90
3866;DHT22;1948;53.250;10.412;2024-02-04T08:25:25;7.70;99.90
3866;DHT22;1948;53.250;10.412;2024-02-04T08:27:52;7.80;99.90
3866;DHT22;1948;53.250;10.412;2024-02-04T08:30:22;7.80;99.90
3866;DHT22;1948;53.250;10.412;2024-02-04T08:32:48;7.80;99.90
3866;DHT22;1948;53.250;10.412;2024-02-04T08:35:15;7.90;99.90
3866;DHT22;1948;53.250;10.412;2024-02-04T08:37:42;7.90;99.90
3866;DHT22;1948;53.250;10.412;2024-02-04T08:40:10;7.90;99.90
3866;DHT22;1948;53.250;10.412;2024-02-04T08:42:40;7.80;99.90
3866;DHT22;1948;53.250;10.412;2024-02-04T08:45:07;7.90;99.90
3866;DHT22;1948;53.250;10.412;2024-02-04T08:47:34;7.90;99.90
3866;DHT22;1948;53.250;10.412;2024-02-04T08:50:04;7.90;99.90
3866;DHT22;1948;53.250;10.412;2024-02-04T08:52:34;8.00;99.90
3866;DHT22;1948;53.250;10.412;2024-02-04T08:55:04;8.10;99.90
3866;DHT22;1948;53.250;10.412;2024-02-04T08:57:33;8.10;99.90
3866;DHT22;1948;53.250;10.412;2024-02-04T09:00:01;8.20;99.90
3866;DHT22;1948;53.250;10.412;2024-02-04T09:02:28;8.10;99.90
3866;DHT22;1948;53.250;10.412;2024-02-04T09:04:57;8.30;99.90
3866;DHT22;1948;53.250;10.412;2024-02-04T09:07:25;8.50;99.90
3866;DHT22;1948;53.250;10.412;2024-02-04T09:09:54;8.60;99.90
3866;DHT22;1948;53.250;10.412;2024-02-04T09:12:22;8.60;99.90
3866;DHT22;1948;53.250;10.412;2024-02-04T09:14:49;8.70;99.90
3866;DHT22;1948;53.250;10.412;2024-02-04T09:17:16;8.70;99.90
3866;DHT22;1948;53.250;10.412;2024-02-04T09:19:43;8.80;99.90
3866;DHT22;1948;53.250;10.412;2024-02-04T09:22:13;8.70;99.90
3866;DHT22;1948;53.250;10.412;2024-02-04T09:24:40;8.70;99.90
3866;DHT22;1948;53.250;10.412;2024-02-04T09:27:09;8.60;99.90
3866;DHT22;1948;53.250;10.412;2024-02-04T09:29:37;8.70;99.90
3866;DHT22;1948;53.250;10.412;2024-02-04T09:32:04;8.80;99.90
3866;DHT22;1948;53.250;10.412;2024-02-04T09:34:32;8.80;99.90
3866;DHT22;1948;53.250;10.412;2024-02-04T09:36:59;8.80;99.90
3866;DHT22;1948;53.250;10.412;2024-02-04T09:39:27;8.80;99.90
3866;DHT22;1948;53.250;10.412;2024-02-04T09:42:00;8.80;99.90
3866;DHT22;1948;53.250;10.412;2024-02-04T09:44:33;8.80;99.90
3866;DHT22;1948;53.250;10.412;2024-02-04T09:47:05;8.90;99.90
3866;DHT22;1948;53.250;10.412;2024-02-04T09:49:32;9.00;99.90
3866;DHT22;1948;53.250;10.412;2024-02-04T09:52:03;8.90;99.90
3866;DHT22;1948;53.250;10.412;2024-02-04T09:54:48;8.90;99.90
3866;DHT22;1948;53.250;10.412;2024-02-04T09:57:17;8.80;99.90
3866;DHT22;1948;53.250;10.412;2024-02-04T09:59:47;8.80;99.90
3866;DHT22;1948;53.250;10.412;2024-02-04T10:02:17;8.70;99.90
3866;DHT22;1948;53.250;10.412;2024-02-04T10:04:48;8.70;99.90
3866;DHT22;1948;53.250;10.412;2024-02-04T10:07:16;8.80;99.90
3866;DHT22;1948;53.250;10.412;2024-02-04T10:09:45;8.80;99.90
3866;DHT22;1948;53.250;10.412;2024-02-04T10:12:12;8.80;99.90
3866;DHT22;1948;53.250;10.412;2024-02-04T10:14:41;8.80;99.90
3866;DHT22;1948;53.250;10.412;2024-02-04T10:17:08;8.80;99.90
3866;DHT22;1948;53.250;10.412;2024-02-04T10:19:38;8.80;99.90
3866;DHT22;1948;53.250;10.412;2024-02-04T10:22:07;8.80;99.90
3866;DHT22;1948;53.250;10.412;2024-02-04T10:24:37;8.80;99.90
3866;DHT22;1948;53.250;10.412;2024-02-04T10:27:04;8.80;99.90
3866;DHT22;1948;53.250;10.412;2024-02-04T10:29:39;8.70;99.90
3866;DHT22;1948;53.250;10.412;2024-02-04T10:32:06;8.80;99.90
3866;DHT22;1948;53.250;10.412;2024-02-04T10:34:38;8.70;99.90
3866;DHT22;1948;53.250;10.412;2024-02-04T10:37:07;8.70;99.90
3866;DHT22;1948;53.250;10.412;2024-02-04T10:39:34;8.80;99.90
3866;DHT22;1948;53.250;10.412;2024-02-04T10:42:02;8.80;99.90
3866;DHT22;1948;53.250;10.412;2024-02-04T10:44:35;8.80;99.90
3866;DHT22;1948;53.250;10.412;2024-02-04T10:47:05;8.90;99.90
3866;DHT22;1948;53.250;10.412;2024-02-04T10:49:37;9.00;99.90
3866;DHT22;1948;53.250;10.412;2024-02-04T10:52:07;8.90;99.90
3866;DHT22;1948;53.250;10.412;2024-02-04T10:54:39;8.90;99.90
3866;DHT22;1948;53.250;10.412;2024-02-04T10:57:12;9.00;99.90
3866;DHT22;1948;53.250;10.412;2024-02-04T10:59:48;9.00;99.90
3866;DHT22;1948;53.250;10.412;2024-02-04T11:02:15;9.00;99.90
3866;DHT22;1948;53.250;10.412;2024-02-04T11:04:48;9.00;99.90
3866;DHT22;1948;53.250;10.412;2024-02-04T11:07:19;9.00;99.90
3866;DHT22;1948;53.250;10.412;2024-02-04T11:09:51;9.00;99.90
3866;DHT22;1948;53.250;10.412;2024-02-04T11:12:21;9.00;99.90
3866;DHT22;1948;53.250;10.412;2024-02-04T11:14:52;9.10;99.90
3866;DHT22;1948;53.250;10.412;2024-02-04T11:20:25;9.00;99.90
3866;DHT22;1948;53.250;10.412;2024-02-04T11:26:05;9.10;99.90
3866;DHT22;1948;53.250;10.412;2024-02-04T11:28:38;9.00;99.90
3866;DHT22;1948;53.250;10.412;2024-02-04T11:31:14;9.00;99.90
3866;DHT22;1948;53.250;10.412;2024-02-04T11:33:43;9.10;99.90
3866;DHT22;1948;53.250;10.412;2024-02-04T11:36:18;9.10;99.90
3866;DHT22;1948;53.250;10.412;2024-02-04T11:38:48;9.10;99.90
3866;DHT22;1948;53.250;10.412;2024-02-04T11:41:24;9.10;99.90
3866;DHT22;1948;53.250;10.412;2024-02-04T11:43:53;9.20;99.90
3866;DHT22;1948;53.250;10.412;2024-02-04T11:46:31;9.20;99.90
3866;DHT22;1948;53.250;10.412;2024-02-04T11:49:01;9.20;99.90
3866;DHT22;1948;53.250;10.412;2024-02-04T11:51:29;9.20;99.90
3866;DHT22;1948;53.250;10.412;2024-02-04T11:53:57;9.20;99.90
3866;DHT22;1948;53.250;10.412;2024-02-04T11:56:27;9.30;99.90
3866;DHT22;1948;53.250;10.412;2024-02-04T11:58:57;9.30;99.90
3866;DHT22;1948;53.250;10.412;2024-02-04T12:01:31;9.30;99.90
3866;DHT22;1948;53.250;10.412;2024-02-04T12:04:16;9.30;99.90
3866;DHT22;1948;53.250;10.412;2024-02-04T12:06:45;9.30;99.90
3866;DHT22;1948;53.250;10.412;2024-02-04T12:09:17;9.40;99.90
3866;DHT22;1948;53.250;10.412;2024-02-04T12:11:47;9.40;99.90
3866;DHT22;1948;53.250;10.412;2024-02-04T12:14:14;9.40;99.90
3866;DHT22;1948;53.250;10.412;2024-02-04T12:16:44;9.30;99.90
3866;DHT22;1948;53.250;10.412;2024-02-04T12:19:12;9.40;99.90
3866;DHT22;1948;53.250;10.412;2024-02-04T12:21:44;9.40;99.90
3866;DHT22;1948;53.250;10.412;2024-02-04T12:24:11;9.40;99.90
3866;DHT22;1948;53.250;10.412;2024-02-04T12:26:41;9.30;99.90
3866;DHT22;1948;53.250;10.412;2024-02-04T12:29:10;9.40;99.90
3866;DHT22;1948;53.250;10.412;2024-02-04T12:31:42;9.40;99.90
3866;DHT22;1948;53.250;10.412;2024-02-04T12:34:12;9.40;99.90
3866;DHT22;1948;53.250;10.412;2024-02-04T12:36:42;9.50;99.90
3866;DHT22;1948;53.250;10.412;2024-02-04T12:39:15;9.60;99.90
3866;DHT22;1948;53.250;10.412;2024-02-04T12:41:51;9.50;99.90
3866;DHT22;1948;53.250;10.412;2024-02-04T12:44:23;9.60;99.90
3866;DHT22;1948;53.250;10.412;2024-02-04T12:46:51;9.70;99.90
3866;DHT22;1948;53.250;10.412;2024-02-04T12:49:21;9.70;99.90
3866;DHT22;1948;53.250;10.412;2024-02-04T12:52:03;9.70;99.90
3866;DHT22;1948;53.250;10.412;2024-02-04T12:54:31;9.80;99.90
3866;DHT22;1948;53.250;10.412;2024-02-04T12:57:00;9.70;99.90
3866;DHT22;1948;53.250;10.412;2024-02-04T12:59:29;9.80;99.90
3866;DHT22;1948;53.250;10.412;2024-02-04T13:01:59;9.80;99.90
3866;DHT22;1948;53.250;10.412;2024-02-04T13:04:36;9.80;99.90
3866;DHT22;1948;53.250;10.412;2024-02-04T13:07:08;9.80;99.90
3866;DHT22;1948;53.250;10.412;2024-02-04T13:09:37;9.80;99.90
3866;DHT22;1948;53.250;10.412;2024-02-04T13:12:08;9.80;99.90
3866;DHT22;1948;53.250;10.412;2024-02-04T13:14:41;9.80;99.90
3866;DHT22;1948;53.250;10.412;2024-02-04T13:17:08;9.80;99.90
3866;DHT22;1948;53.250;10.412;2024-02-04T13:19:37;9.70;99.90
3866;DHT22;1948;53.250;10.412;2024-02-04T13:22:08;9.70;99.90
3866;DHT22;1948;53.250;10.412;2024-02-04T13:24:40;9.70;99.90
3866;DHT22;1948;53.250;10.412;2024-02-04T13:27:07;9.70;99.90
3866;DHT22;1948;53.250;10.412;2024-02-04T13:29:35;9.70;99.90
3866;DHT22;1948;53.250;10.412;2024-02-04T13:32:02;9.60;99.90
3866;DHT22;1948;53.250;10.412;2024-02-04T13:34:32;9.60;99.90
3866;DHT22;1948;53.250;10.412;2024-02-04T13:37:02;9.70;99.90
3866;DHT22;1948;53.250;10.412;2024-02-04T13:39:31;9.60;99.90
3866;DHT22;1948;53.250;10.412;2024-02-04T13:41:58;9.60;99.90
3866;DHT22;1948;53.250;10.412;2024-02-04T13:44:28;9.70;99.90
3866;DHT22;1948;53.250;10.412;2024-02-04T13:46:57;9.70;99.90
3866;DHT22;1948;53.250;10.412;2024-02-04T13:49:24;9.70;99.90
3866;DHT22;1948;53.250;10.412;2024-02-04T13:51:51;9.80;99.90
3866;DHT22;1948;53.250;10.412;2024-02-04T13:54:21;9.80;99.90
3866;DHT22;1948;53.250;10.412;2024-02-04T13:56:48;9.70;99.90
3866;DHT22;1948;53.250;10.412;2024-02-04T13:59:16;9.70;99.90
3866;DHT22;1948;53.250;10.412;2024-02-04T14:01:44;9.70;99.90
3866;DHT22;1948;53.250;10.412;2024-02-04T14:04:17;9.70;99.90
3866;DHT22;1948;53.250;10.412;2024-02-04T14:06:44;9.70;99.90
3866;DHT22;1948;53.250;10.412;2024-02-04T14:09:12;9.70;99.90
3866;DHT22;1948;53.250;10.412;2024-02-04T14:11:43;9.70;99.90
3866;DHT22;1948;53.250;10.412;2024-02-04T14:14:14;9.70;99.90
3866;DHT22;1948;53.250;10.412;2024-02-04T14:16:41;9.70;99.90
3866;DHT22;1948;53.250;10.412;2024-02-04T14:19:08;9.60;99.90
3866;DHT22;1948;53.250;10.412;2024-02-04T14:21:35;9.60;99.90
3866;DHT22;1948;53.250;10.412;2024-02-04T14:24:05;9.80;99.90
3866;DHT22;1948;53.250;10.412;2024-02-04T14:26:38;9.70;99.90
3866;DHT22;1948;53.250;10.412;2024-02-04T14:29:05;9.70;99.90
3866;DHT22;1948;53.250;10.412;2024-02-04T14:31:35;9.70;99.90
3866;DHT22;1948;53.250;10.412;2024-02-04T14:34:02;9.80;99.90
3866;DHT22;1948;53.250;10.412;2024-02-04T14:36:29;9.80;99.90
3866;DHT22;1948;53.250;10.412;2024-02-04T14:38:57;9.80;99.90
3866;DHT22;1948;53.250;10.412;2024-02-04T14:41:26;9.70;99.90
3866;DHT22;1948;53.250;10.412;2024-02-04T14:43:53;9.70;99.90
3866;DHT22;1948;53.250;10.412;2024-02-04T14:46:20;9.70;99.90
3866;DHT22;1948;53.250;10.412;2024-02-04T14:48:50;9.60;99.90
3866;DHT22;1948;53.250;10.412;2024-02-04T14:51:19;9.60;99.90
3866;DHT22;1948;53.250;10.412;2024-02-04T14:53:48;9.60;99.90
3866;DHT22;1948;53.250;10.412;2024-02-04T14:56:15;9.60;99.90
3866;DHT22;1948;53.250;10.412;2024-02-04T14:58:45;9.60;99.90
3866;DHT22;1948;53.250;10.412;2024-02-04T15:01:12;9.70;99.90
3866;DHT22;1948;53.250;10.412;2024-02-04T15:03:41;9.60;99.90
3866;DHT22;1948;53.250;10.412;2024-02-04T15:06:11;9.60;99.90
3866;DHT22;1948;53.250;10.412;2024-02-04T15:08:38;9.60;99.90
3866;DHT22;1948;53.250;10.412;2024-02-04T15:11:07;9.50;99.90
3866;DHT22;1948;53.250;10.412;2024-02-04T15:13:37;9.60;99.90
3866;DHT22;1948;53.250;10.412;2024-02-04T15:16:07;9.50;99.90
3866;DHT22;1948;53.250;10.412;2024-02-04T15:18:35;9.50;99.90
3866;DHT22;1948;53.250;10.412;2024-02-04T15:21:05;9.50;99.90
3866;DHT22;1948;53.250;10.412;2024-02-04T15:23:32;9.50;99.90
3866;DHT22;1948;53.250;10.412;2024-02-04T15:26:03;9.50;99.90
3866;DHT22;1948;53.250;10.412;2024-02-04T15:28:34;9.40;99.90
3866;DHT22;1948;53.250;10.412;2024-02-04T15:31:04;9.40;99.90
3866;DHT22;1948;53.250;10.412;2024-02-04T15:33:34;9.30;99.90
3866;DHT22;1948;53.250;10.412;2024-02-04T15:36:02;9.40;99.90
3866;DHT22;1948;53.250;10.412;2024-02-04T15:38:28;9.40;99.90
3866;DHT22;1948;53.250;10.412;2024-02-04T15:40:58;9.40;99.90
3866;DHT22;1948;53.250;10.412;2024-02-04T15:43:27;9.40;99.90
3866;DHT22;1948;53.250;10.412;2024-02-04T15:45:57;9.40;99.90
3866;DHT22;1948;53.250;10.412;2024-02-04T15:48:30;9.40;99.90
3866;DHT22;1948;53.250;10.412;2024-02-04T15:51:02;9.30;99.90
3866;DHT22;1948;53.250;10.412;2024-02-04T15:53:34;9.30;99.90
3866;DHT22;1948;53.250;10.412;2024-02-04T15:56:04;9.30;99.90
3866;DHT22;1948;53.250;10.412;2024-02-04T15:58:37;9.30;99.90
3866;DHT22;1948;53.250;10.412;2024-02-04T16:01:10;9.10;99.90
3866;DHT22;1948;53.250;10.412;2024-02-04T16:03:42;9.20;99.90
3866;DHT22;1948;53.250;10.412;2024-02-04T16:06:12;9.10;99.90
3866;DHT22;1948;53.250;10.412;2024-02-04T16:08:44;9.10;99.90
3866;DHT22;1948;53.250;10.412;2024-02-04T16:11:18;9.10;99.90
3866;DHT22;1948;53.250;10.412;2024-02-04T16:13:46;9.00;99.90
3866;DHT22;1948;53.250;10.412;2024-02-04T16:16:19;9.00;99.90
3866;DHT22;1948;53.250;10.412;2024-02-04T16:18:52;9.00;99.90
3866;DHT22;1948;53.250;10.412;2024-02-04T16:21:23;8.90;99.90
3866;DHT22;1948;53.250;10.412;2024-02-04T16:23:50;8.90;99.90
3866;DHT22;1948;53.250;10.412;2024-02-04T16:26:17;8.90;99.90